Main page
METAR-TAF:

METAR-TAF

Airports :

Skopje "Alexander the Great" Airport

Skopje, Macedonia

latitude: 41-58N, longitude: 021-39E, elevation: 238 m

Current weather observation

The report was made 20 minutes ago, at 06:00 UTC
Calm wind
Temperature 24°C
Humidity 54%
Pressure 1014 hPa
Visibility 10 km or more
no clouds below 1500 m and no cumulonimbus

METAR: LWSK 300600Z 00000KT CAVOK 24/14 Q1014 NOSIG

Time: 08:20 (06:20 UTC)

Forecast

The report was made 50 minutes ago, at 05:30 UTC
Forecast valid from 30 at 06 UTC to 31 at 06 UTC
Wind 2 kt from variable directions
Visibility 10 km or more
no clouds below 1500 m and no cumulonimbus
Temporary
from 30 at 12 UTC to 30 at 20 UTC
Wind 10 kt from the North/Northwest

TAF: LWSK 300530Z 3006/3106 VRB02KT CAVOK TEMPO 3012/3020 34010KT

Weather observations and forecasts of more than 4000 airports (METAR and TAF reports).

The available stations are represented by yellow and red dots on the map.

Hover mouse over dot to see the name of the station.

Then click to see weather observations and forecasts.

To change the map : click on the green buttons with a black cross to zoom in, on the green button with a dash to zoom out, or on the green arrows for adjacent maps.


METAR-TAF: